Portada
METAR-TAF:

METAR-TAF

Aeropuertos :

Gerona, España

Aeropuerto de Gerona

latitud: 41-54N, longitud: 002-46E, altitud: 143 m

Observación

El informe se hizo hace 28 minutos, a las 08:00 UTC
Viento 1 kt con dirección variable
Temperatura 4°C
Humedad 100%
Presión 1020 hPa
Visibilidad 10 km o más
Nubes dispersas a una altura de 1800 ft

METAR: LEGE 180800Z VRB01KT 9999 SCT018 04/04 Q1020

Hora: 09:28 (08:28 UTC)

Pronóstico

El informe se hizo hace 3 horas y 28 minutos, a las 05:00 UTC
Pronóstico válido del 18 a las 06 UTC al 19 a las 06 UTC
Viento 4 kt con dirección variable
Visibilidad 10 km o más
Escasas nubes a una altura de 3000 ft

TAF: LEGE 180500Z 1806/1906 VRB04KT 9999 FEW030 TX19/1813Z TN01/1806Z

Observaciones y pronósticos meteorológicos de más de 4000 aeropuertos (mensajes METAR y TAF).

Los puntos amarillos y rojos representan las estaciones disponibles.

Ponga el ratón en el punto deseado para ver el nombre de la estación.

Haga clic para ver las observaciones y los pronósticos meteorológicos.

Para cambiar el mapa : haga clic en los botones verdes con una cruz de color negro para hacer un zoom, en el botón verde con un guión para alejar o en las flechas verdes para mapas adyacentes.


METAR-TAF: